sensor_id;sensor_type;location;lat;lon;timestamp;temperature;humidity
9403;DHT22;4741;49.834;10.740;2022-07-15T00:13:06;15.00;99.90
9403;DHT22;4741;49.834;10.740;2022-07-15T00:15:32;15.00;99.90
9403;DHT22;4741;49.834;10.740;2022-07-15T00:17:59;14.70;99.90
9403;DHT22;4741;49.834;10.740;2022-07-15T00:20:30;14.50;99.90
9403;DHT22;4741;49.834;10.740;2022-07-15T00:23:01;14.20;99.90
9403;DHT22;4741;49.834;10.740;2022-07-15T00:25:28;15.40;99.90
9403;DHT22;4741;49.834;10.740;2022-07-15T00:28:01;15.50;99.90
9403;DHT22;4741;49.834;10.740;2022-07-15T00:30:30;14.70;99.90
9403;DHT22;4741;49.834;10.740;2022-07-15T00:32:57;14.70;99.90
9403;DHT22;4741;49.834;10.740;2022-07-15T00:35:24;14.60;99.90
9403;DHT22;4741;49.834;10.740;2022-07-15T00:37:51;14.80;99.90
9403;DHT22;4741;49.834;10.740;2022-07-15T00:40:17;14.60;99.90
9403;DHT22;4741;49.834;10.740;2022-07-15T00:42:44;14.30;99.90
9403;DHT22;4741;49.834;10.740;2022-07-15T00:45:15;13.90;99.90
9403;DHT22;4741;49.834;10.740;2022-07-15T00:50:10;13.60;99.90
9403;DHT22;4741;49.834;10.740;2022-07-15T00:57:32;13.30;99.90
9403;DHT22;4741;49.834;10.740;2022-07-15T01:02:30;13.20;99.90
9403;DHT22;4741;49.834;10.740;2022-07-15T01:04:58;13.80;99.90
9403;DHT22;4741;49.834;10.740;2022-07-15T01:07:25;13.60;99.90
9403;DHT22;4741;49.834;10.740;2022-07-15T01:09:52;13.70;99.90
9403;DHT22;4741;49.834;10.740;2022-07-15T01:12:19;13.70;99.90
9403;DHT22;4741;49.834;10.740;2022-07-15T01:14:45;13.70;99.90
9403;DHT22;4741;49.834;10.740;2022-07-15T01:17:12;13.30;99.90
9403;DHT22;4741;49.834;10.740;2022-07-15T01:19:39;14.00;99.90
9403;DHT22;4741;49.834;10.740;2022-07-15T01:27:00;13.50;99.90
9403;DHT22;4741;49.834;10.740;2022-07-15T01:29:28;14.40;99.90
9403;DHT22;4741;49.834;10.740;2022-07-15T01:31:55;12.70;99.90
9403;DHT22;4741;49.834;10.740;2022-07-15T01:34:21;13.20;99.90
9403;DHT22;4741;49.834;10.740;2022-07-15T01:36:48;13.40;99.90
9403;DHT22;4741;49.834;10.740;2022-07-15T01:39:15;14.20;99.90
9403;DHT22;4741;49.834;10.740;2022-07-15T01:42:02;12.80;99.90
9403;DHT22;4741;49.834;10.740;2022-07-15T01:46:55;13.30;99.90
9403;DHT22;4741;49.834;10.740;2022-07-15T01:51:55;13.10;99.90
9403;DHT22;4741;49.834;10.740;2022-07-15T01:54:23;13.10;99.90
9403;DHT22;4741;49.834;10.740;2022-07-15T01:56:50;12.40;99.90
9403;DHT22;4741;49.834;10.740;2022-07-15T02:01:44;12.50;99.90
9403;DHT22;4741;49.834;10.740;2022-07-15T02:04:11;12.70;99.90
9403;DHT22;4741;49.834;10.740;2022-07-15T02:06:39;12.80;99.90
9403;DHT22;4741;49.834;10.740;2022-07-15T02:14:00;12.20;99.90
9403;DHT22;4741;49.834;10.740;2022-07-15T02:16:29;12.10;99.90
9403;DHT22;4741;49.834;10.740;2022-07-15T02:18:56;12.80;99.90
9403;DHT22;4741;49.834;10.740;2022-07-15T02:21:24;11.60;99.90
9403;DHT22;4741;49.834;10.740;2022-07-15T02:23:53;12.10;99.90
9403;DHT22;4741;49.834;10.740;2022-07-15T02:26:20;12.00;99.90
9403;DHT22;4741;49.834;10.740;2022-07-15T02:28:47;12.20;99.90
9403;DHT22;4741;49.834;10.740;2022-07-15T02:31:13;12.20;99.90
9403;DHT22;4741;49.834;10.740;2022-07-15T02:33:40;11.40;99.90
9403;DHT22;4741;49.834;10.740;2022-07-15T02:36:10;11.50;99.90
9403;DHT22;4741;49.834;10.740;2022-07-15T02:38:37;12.00;99.90
9403;DHT22;4741;49.834;10.740;2022-07-15T02:41:04;11.70;99.90
9403;DHT22;4741;49.834;10.740;2022-07-15T02:43:31;11.40;99.90
9403;DHT22;4741;49.834;10.740;2022-07-15T02:45:57;11.60;99.90
9403;DHT22;4741;49.834;10.740;2022-07-15T02:50:51;11.70;99.90
9403;DHT22;4741;49.834;10.740;2022-07-15T02:53:18;11.30;99.90
9403;DHT22;4741;49.834;10.740;2022-07-15T02:55:46;10.70;99.90
9403;DHT22;4741;49.834;10.740;2022-07-15T02:58:13;13.20;99.90
9403;DHT22;4741;49.834;10.740;2022-07-15T03:03:07;11.10;99.90
9403;DHT22;4741;49.834;10.740;2022-07-15T03:05:34;10.80;99.90
9403;DHT22;4741;49.834;10.740;2022-07-15T03:10:30;11.30;99.90
9403;DHT22;4741;49.834;10.740;2022-07-15T03:12:56;13.10;99.90
9403;DHT22;4741;49.834;10.740;2022-07-15T03:15:23;11.50;99.90
9403;DHT22;4741;49.834;10.740;2022-07-15T03:20:18;11.30;99.90
9403;DHT22;4741;49.834;10.740;2022-07-15T03:22:44;11.20;99.90
9403;DHT22;4741;49.834;10.740;2022-07-15T03:25:11;11.10;99.90
9403;DHT22;4741;49.834;10.740;2022-07-15T03:27:38;10.90;99.90
9403;DHT22;4741;49.834;10.740;2022-07-15T03:30:05;10.70;99.90
9403;DHT22;4741;49.834;10.740;2022-07-15T03:32:31;10.90;99.90
9403;DHT22;4741;49.834;10.740;2022-07-15T03:34:59;10.70;99.90
9403;DHT22;4741;49.834;10.740;2022-07-15T03:39:53;10.50;99.90
9403;DHT22;4741;49.834;10.740;2022-07-15T03:42:19;10.70;99.90
9403;DHT22;4741;49.834;10.740;2022-07-15T03:44:46;10.90;99.90
9403;DHT22;4741;49.834;10.740;2022-07-15T03:47:13;11.90;99.90
9403;DHT22;4741;49.834;10.740;2022-07-15T03:49:40;11.00;99.90
9403;DHT22;4741;49.834;10.740;2022-07-15T03:52:06;11.00;99.90
9403;DHT22;4741;49.834;10.740;2022-07-15T03:54:33;11.60;99.90
9403;DHT22;4741;49.834;10.740;2022-07-15T03:57:00;10.90;99.90
9403;DHT22;4741;49.834;10.740;2022-07-15T03:59:27;11.30;99.90
9403;DHT22;4741;49.834;10.740;2022-07-15T04:01:53;10.60;99.90
9403;DHT22;4741;49.834;10.740;2022-07-15T04:04:20;10.60;99.90
9403;DHT22;4741;49.834;10.740;2022-07-15T04:06:47;10.50;99.90
9403;DHT22;4741;49.834;10.740;2022-07-15T04:09:14;10.70;99.90
9403;DHT22;4741;49.834;10.740;2022-07-15T04:11:41;10.90;99.90
9403;DHT22;4741;49.834;10.740;2022-07-15T04:14:12;10.80;99.90
9403;DHT22;4741;49.834;10.740;2022-07-15T04:16:40;11.00;99.90
9403;DHT22;4741;49.834;10.740;2022-07-15T04:19:07;11.20;99.90
9403;DHT22;4741;49.834;10.740;2022-07-15T04:21:34;11.30;99.90
9403;DHT22;4741;49.834;10.740;2022-07-15T04:24:00;11.30;99.90
9403;DHT22;4741;49.834;10.740;2022-07-15T04:26:27;11.20;99.90
9403;DHT22;4741;49.834;10.740;2022-07-15T04:28:55;11.00;99.90
9403;DHT22;4741;49.834;10.740;2022-07-15T04:31:21;11.30;99.90
9403;DHT22;4741;49.834;10.740;2022-07-15T04:33:48;11.10;99.90
9403;DHT22;4741;49.834;10.740;2022-07-15T04:36:15;11.70;99.90
9403;DHT22;4741;49.834;10.740;2022-07-15T04:38:42;11.30;99.90
9403;DHT22;4741;49.834;10.740;2022-07-15T04:41:08;11.50;99.90
9403;DHT22;4741;49.834;10.740;2022-07-15T04:43:35;11.20;99.90
9403;DHT22;4741;49.834;10.740;2022-07-15T04:46:02;11.60;99.90
9403;DHT22;4741;49.834;10.740;2022-07-15T04:48:29;11.20;99.90
9403;DHT22;4741;49.834;10.740;2022-07-15T04:51:14;11.20;99.90
9403;DHT22;4741;49.834;10.740;2022-07-15T04:53:42;11.50;99.90
9403;DHT22;4741;49.834;10.740;2022-07-15T05:01:03;12.20;99.90
9403;DHT22;4741;49.834;10.740;2022-07-15T05:08:24;12.10;99.90
9403;DHT22;4741;49.834;10.740;2022-07-15T05:13:17;12.20;99.90
9403;DHT22;4741;49.834;10.740;2022-07-15T05:15:44;12.40;99.90
9403;DHT22;4741;49.834;10.740;2022-07-15T05:18:11;11.90;99.90
9403;DHT22;4741;49.834;10.740;2022-07-15T05:20:38;12.30;99.90
9403;DHT22;4741;49.834;10.740;2022-07-15T05:25:32;12.60;99.90
9403;DHT22;4741;49.834;10.740;2022-07-15T05:27:58;11.70;99.90
9403;DHT22;4741;49.834;10.740;2022-07-15T05:30:25;13.00;99.90
9403;DHT22;4741;49.834;10.740;2022-07-15T05:35:19;13.30;99.90
9403;DHT22;4741;49.834;10.740;2022-07-15T05:37:45;14.10;99.90
9403;DHT22;4741;49.834;10.740;2022-07-15T05:40:12;12.80;99.90
9403;DHT22;4741;49.834;10.740;2022-07-15T05:42:41;13.60;99.90
9403;DHT22;4741;49.834;10.740;2022-07-15T05:47:35;13.50;99.90
9403;DHT22;4741;49.834;10.740;2022-07-15T05:50:02;14.30;99.90
9403;DHT22;4741;49.834;10.740;2022-07-15T05:52:28;13.40;99.90
9403;DHT22;4741;49.834;10.740;2022-07-15T05:54:55;13.70;99.90
9403;DHT22;4741;49.834;10.740;2022-07-15T05:59:49;13.90;99.90
9403;DHT22;4741;49.834;10.740;2022-07-15T06:04:43;13.80;99.90
9403;DHT22;4741;49.834;10.740;2022-07-15T06:07:09;13.90;99.90
9403;DHT22;4741;49.834;10.740;2022-07-15T06:09:36;14.50;99.90
9403;DHT22;4741;49.834;10.740;2022-07-15T06:12:03;14.20;99.90
9403;DHT22;4741;49.834;10.740;2022-07-15T06:17:03;14.60;99.90
9403;DHT22;4741;49.834;10.740;2022-07-15T06:19:29;14.40;99.90
9403;DHT22;4741;49.834;10.740;2022-07-15T06:24:23;14.90;99.90
9403;DHT22;4741;49.834;10.740;2022-07-15T06:26:50;14.70;99.90
9403;DHT22;4741;49.834;10.740;2022-07-15T06:29:17;15.30;99.90
9403;DHT22;4741;49.834;10.740;2022-07-15T06:31:44;14.00;99.90
9403;DHT22;4741;49.834;10.740;2022-07-15T06:34:11;15.40;99.90
9403;DHT22;4741;49.834;10.740;2022-07-15T06:39:04;15.00;99.90
9403;DHT22;4741;49.834;10.740;2022-07-15T06:41:31;16.20;99.90
9403;DHT22;4741;49.834;10.740;2022-07-15T06:43:58;15.70;99.90
9403;DHT22;4741;49.834;10.740;2022-07-15T06:48:52;16.30;99.90
9403;DHT22;4741;49.834;10.740;2022-07-15T06:51:19;16.60;99.90
9403;DHT22;4741;49.834;10.740;2022-07-15T06:53:46;15.90;99.90
9403;DHT22;4741;49.834;10.740;2022-07-15T06:56:13;15.60;99.90
9403;DHT22;4741;49.834;10.740;2022-07-15T06:58:39;15.90;99.90
9403;DHT22;4741;49.834;10.740;2022-07-15T07:01:06;16.50;99.90
9403;DHT22;4741;49.834;10.740;2022-07-15T07:03:33;16.10;99.90
9403;DHT22;4741;49.834;10.740;2022-07-15T07:06:20;17.30;99.90
9403;DHT22;4741;49.834;10.740;2022-07-15T07:08:46;18.50;99.90
9403;DHT22;4741;49.834;10.740;2022-07-15T07:11:15;19.30;99.90
9403;DHT22;4741;49.834;10.740;2022-07-15T07:13:42;18.80;99.90
9403;DHT22;4741;49.834;10.740;2022-07-15T07:16:09;16.80;99.90
9403;DHT22;4741;49.834;10.740;2022-07-15T07:18:36;19.50;99.90
9403;DHT22;4741;49.834;10.740;2022-07-15T07:23:30;18.20;99.90
9403;DHT22;4741;49.834;10.740;2022-07-15T07:25:58;18.80;99.90
9403;DHT22;4741;49.834;10.740;2022-07-15T07:28:25;17.70;99.90
9403;DHT22;4741;49.834;10.740;2022-07-15T07:40:43;19.00;99.90
9403;DHT22;4741;49.834;10.740;2022-07-15T07:43:10;19.40;99.90
9403;DHT22;4741;49.834;10.740;2022-07-15T07:45:37;19.80;99.90
9403;DHT22;4741;49.834;10.740;2022-07-15T07:50:31;20.10;99.90
9403;DHT22;4741;49.834;10.740;2022-07-15T07:52:58;20.30;99.90
9403;DHT22;4741;49.834;10.740;2022-07-15T07:57:53;20.00;99.90
9403;DHT22;4741;49.834;10.740;2022-07-15T08:00:21;20.70;99.90
9403;DHT22;4741;49.834;10.740;2022-07-15T08:02:48;21.10;99.90
9403;DHT22;4741;49.834;10.740;2022-07-15T08:05:15;19.70;99.90
9403;DHT22;4741;49.834;10.740;2022-07-15T08:07:50;21.70;99.90
9403;DHT22;4741;49.834;10.740;2022-07-15T08:10:17;22.40;99.90
9403;DHT22;4741;49.834;10.740;2022-07-15T08:12:45;19.50;99.90
9403;DHT22;4741;49.834;10.740;2022-07-15T08:15:12;19.40;99.90
9403;DHT22;4741;49.834;10.740;2022-07-15T08:17:39;21.30;99.90
9403;DHT22;4741;49.834;10.740;2022-07-15T08:20:07;19.70;99.90
9403;DHT22;4741;49.834;10.740;2022-07-15T08:22:35;20.00;99.90
9403;DHT22;4741;49.834;10.740;2022-07-15T08:25:01;20.40;99.90
9403;DHT22;4741;49.834;10.740;2022-07-15T08:27:28;20.40;99.90
9403;DHT22;4741;49.834;10.740;2022-07-15T08:32:24;19.60;99.90
9403;DHT22;4741;49.834;10.740;2022-07-15T08:34:51;19.90;99.90
9403;DHT22;4741;49.834;10.740;2022-07-15T08:39:45;20.40;99.90
9403;DHT22;4741;49.834;10.740;2022-07-15T08:42:12;20.20;99.90
9403;DHT22;4741;49.834;10.740;2022-07-15T08:44:40;20.70;99.90
9403;DHT22;4741;49.834;10.740;2022-07-15T08:47:07;21.90;99.90
9403;DHT22;4741;49.834;10.740;2022-07-15T08:49:57;21.10;99.90
9403;DHT22;4741;49.834;10.740;2022-07-15T08:52:24;20.50;99.90
9403;DHT22;4741;49.834;10.740;2022-07-15T08:54:52;21.40;99.90
9403;DHT22;4741;49.834;10.740;2022-07-15T08:57:19;21.80;99.90
9403;DHT22;4741;49.834;10.740;2022-07-15T08:59:45;21.30;99.90
9403;DHT22;4741;49.834;10.740;2022-07-15T09:02:13;21.30;99.90
9403;DHT22;4741;49.834;10.740;2022-07-15T09:05:24;21.50;99.90
9403;DHT22;4741;49.834;10.740;2022-07-15T09:10:22;20.90;99.90
9403;DHT22;4741;49.834;10.740;2022-07-15T09:15:33;21.70;99.90
9403;DHT22;4741;49.834;10.740;2022-07-15T09:18:11;21.40;99.90
9403;DHT22;4741;49.834;10.740;2022-07-15T09:20:39;21.40;99.90
9403;DHT22;4741;49.834;10.740;2022-07-15T09:23:07;22.70;99.90
9403;DHT22;4741;49.834;10.740;2022-07-15T09:25:34;23.30;99.90
9403;DHT22;4741;49.834;10.740;2022-07-15T09:28:02;22.90;99.90
9403;DHT22;4741;49.834;10.740;2022-07-15T09:30:31;20.90;99.90
9403;DHT22;4741;49.834;10.740;2022-07-15T09:33:35;20.80;99.90
9403;DHT22;4741;49.834;10.740;2022-07-15T09:41:11;20.50;99.90
9403;DHT22;4741;49.834;10.740;2022-07-15T09:43:42;20.40;99.90
9403;DHT22;4741;49.834;10.740;2022-07-15T09:46:09;20.40;99.90
9403;DHT22;4741;49.834;10.740;2022-07-15T09:48:40;21.20;99.90
9403;DHT22;4741;49.834;10.740;2022-07-15T09:53:34;22.10;99.90
9403;DHT22;4741;49.834;10.740;2022-07-15T09:56:01;22.30;99.90
9403;DHT22;4741;49.834;10.740;2022-07-15T09:58:29;23.50;99.90
9403;DHT22;4741;49.834;10.740;2022-07-15T10:00:55;22.50;99.90
9403;DHT22;4741;49.834;10.740;2022-07-15T10:03:22;22.70;99.90
9403;DHT22;4741;49.834;10.740;2022-07-15T10:05:53;22.90;99.90
9403;DHT22;4741;49.834;10.740;2022-07-15T10:08:23;23.10;99.90
9403;DHT22;4741;49.834;10.740;2022-07-15T10:10:51;24.00;99.90
9403;DHT22;4741;49.834;10.740;2022-07-15T10:13:25;22.10;99.90
9403;DHT22;4741;49.834;10.740;2022-07-15T10:20:57;21.90;99.90
9403;DHT22;4741;49.834;10.740;2022-07-15T10:31:12;23.90;99.90
9403;DHT22;4741;49.834;10.740;2022-07-15T10:33:40;23.50;99.90
9403;DHT22;4741;49.834;10.740;2022-07-15T10:36:11;24.20;99.90
9403;DHT22;4741;49.834;10.740;2022-07-15T10:38:39;24.50;99.90
9403;DHT22;4741;49.834;10.740;2022-07-15T10:41:13;25.70;99.80
9403;DHT22;4741;49.834;10.740;2022-07-15T10:50:37;24.90;98.30
9403;DHT22;4741;49.834;10.740;2022-07-15T10:53:24;24.90;99.90
9403;DHT22;4741;49.834;10.740;2022-07-15T11:00:54;23.50;98.50
9403;DHT22;4741;49.834;10.740;2022-07-15T11:03:58;23.50;99.80
9403;DHT22;4741;49.834;10.740;2022-07-15T11:15:10;25.00;98.30
9403;DHT22;4741;49.834;10.740;2022-07-15T11:17:38;26.00;99.90
9403;DHT22;4741;49.834;10.740;2022-07-15T11:20:07;26.40;99.90
9403;DHT22;4741;49.834;10.740;2022-07-15T11:22:41;24.90;96.10
9403;DHT22;4741;49.834;10.740;2022-07-15T11:30:03;23.70;95.70
9403;DHT22;4741;49.834;10.740;2022-07-15T11:32:31;23.70;95.90
9403;DHT22;4741;49.834;10.740;2022-07-15T11:34:59;22.70;96.10
9403;DHT22;4741;49.834;10.740;2022-07-15T11:40:10;22.90;97.60
9403;DHT22;4741;49.834;10.740;2022-07-15T11:42:38;24.90;95.40
9403;DHT22;4741;49.834;10.740;2022-07-15T11:45:32;25.10;95.20
9403;DHT22;4741;49.834;10.740;2022-07-15T11:47:59;26.10;98.30
9403;DHT22;4741;49.834;10.740;2022-07-15T11:50:25;26.10;99.90
9403;DHT22;4741;49.834;10.740;2022-07-15T11:52:56;23.70;93.70
9403;DHT22;4741;49.834;10.740;2022-07-15T11:55:24;23.50;94.40
9403;DHT22;4741;49.834;10.740;2022-07-15T11:57:51;24.70;96.10
9403;DHT22;4741;49.834;10.740;2022-07-15T12:00:29;22.80;97.90
9403;DHT22;4741;49.834;10.740;2022-07-15T12:03:06;22.70;99.90
9403;DHT22;4741;49.834;10.740;2022-07-15T12:05:34;23.40;99.70
9403;DHT22;4741;49.834;10.740;2022-07-15T12:08:01;24.80;99.90
9403;DHT22;4741;49.834;10.740;2022-07-15T12:10:34;24.90;99.90
9403;DHT22;4741;49.834;10.740;2022-07-15T12:13:01;26.30;94.90
9403;DHT22;4741;49.834;10.740;2022-07-15T12:15:29;26.60;94.60
9403;DHT22;4741;49.834;10.740;2022-07-15T12:17:59;27.70;91.90
9403;DHT22;4741;49.834;10.740;2022-07-15T12:20:33;27.40;91.00
9403;DHT22;4741;49.834;10.740;2022-07-15T12:23:08;28.10;99.90
9403;DHT22;4741;49.834;10.740;2022-07-15T12:25:36;26.30;90.90
9403;DHT22;4741;49.834;10.740;2022-07-15T12:28:03;26.20;99.90
9403;DHT22;4741;49.834;10.740;2022-07-15T12:30:36;25.80;91.20
9403;DHT22;4741;49.834;10.740;2022-07-15T12:33:19;27.50;93.50
9403;DHT22;4741;49.834;10.740;2022-07-15T12:35:46;26.50;91.60
9403;DHT22;4741;49.834;10.740;2022-07-15T12:38:24;26.50;95.70
9403;DHT22;4741;49.834;10.740;2022-07-15T12:41:03;25.10;91.80
9403;DHT22;4741;49.834;10.740;2022-07-15T12:51:52;23.50;93.00
9403;DHT22;4741;49.834;10.740;2022-07-15T12:54:19;23.20;95.80
9403;DHT22;4741;49.834;10.740;2022-07-15T12:56:49;23.00;95.40
9403;DHT22;4741;49.834;10.740;2022-07-15T12:59:16;23.30;99.90
9403;DHT22;4741;49.834;10.740;2022-07-15T13:01:43;25.50;99.90
9403;DHT22;4741;49.834;10.740;2022-07-15T13:04:27;24.20;94.30
9403;DHT22;4741;49.834;10.740;2022-07-15T13:06:54;24.60;99.90
9403;DHT22;4741;49.834;10.740;2022-07-15T13:09:23;24.50;93.80
9403;DHT22;4741;49.834;10.740;2022-07-15T13:11:56;24.80;97.30
9403;DHT22;4741;49.834;10.740;2022-07-15T13:14:23;24.00;93.40
9403;DHT22;4741;49.834;10.740;2022-07-15T13:19:17;25.90;92.40
9403;DHT22;4741;49.834;10.740;2022-07-15T13:21:44;26.40;90.00
9403;DHT22;4741;49.834;10.740;2022-07-15T13:24:10;25.20;91.20
9403;DHT22;4741;49.834;10.740;2022-07-15T13:29:04;25.30;92.30
9403;DHT22;4741;49.834;10.740;2022-07-15T13:31:31;25.80;91.20
9403;DHT22;4741;49.834;10.740;2022-07-15T13:33:58;24.70;89.80
9403;DHT22;4741;49.834;10.740;2022-07-15T13:36:25;27.70;91.50
9403;DHT22;4741;49.834;10.740;2022-07-15T13:38:52;29.30;87.40
9403;DHT22;4741;49.834;10.740;2022-07-15T13:41:19;30.10;83.60
9403;DHT22;4741;49.834;10.740;2022-07-15T13:43:46;30.10;83.50
9403;DHT22;4741;49.834;10.740;2022-07-15T13:46:13;31.70;86.70
9403;DHT22;4741;49.834;10.740;2022-07-15T13:48:40;29.50;80.00
9403;DHT22;4741;49.834;10.740;2022-07-15T13:51:16;29.10;80.50
9403;DHT22;4741;49.834;10.740;2022-07-15T13:53:50;27.30;85.40
9403;DHT22;4741;49.834;10.740;2022-07-15T13:56:17;28.00;88.00
9403;DHT22;4741;49.834;10.740;2022-07-15T13:58:53;29.70;84.60
9403;DHT22;4741;49.834;10.740;2022-07-15T14:01:26;30.50;81.10
9403;DHT22;4741;49.834;10.740;2022-07-15T14:03:54;28.60;81.50
9403;DHT22;4741;49.834;10.740;2022-07-15T14:06:26;28.50;85.80
9403;DHT22;4741;49.834;10.740;2022-07-15T14:08:54;31.10;80.30
9403;DHT22;4741;49.834;10.740;2022-07-15T14:11:21;27.00;91.00
9403;DHT22;4741;49.834;10.740;2022-07-15T14:13:48;26.80;99.90
9403;DHT22;4741;49.834;10.740;2022-07-15T14:16:14;27.70;90.80
9403;DHT22;4741;49.834;10.740;2022-07-15T14:21:09;26.40;85.30
9403;DHT22;4741;49.834;10.740;2022-07-15T14:23:36;26.70;86.00
9403;DHT22;4741;49.834;10.740;2022-07-15T14:28:33;28.40;83.00
9403;DHT22;4741;49.834;10.740;2022-07-15T14:31:00;30.20;80.00
9403;DHT22;4741;49.834;10.740;2022-07-15T14:33:27;29.10;99.50
9403;DHT22;4741;49.834;10.740;2022-07-15T14:35:53;29.30;94.90
9403;DHT22;4741;49.834;10.740;2022-07-15T14:38:20;28.70;97.40
9403;DHT22;4741;49.834;10.740;2022-07-15T14:40:47;29.00;94.10
9403;DHT22;4741;49.834;10.740;2022-07-15T14:43:14;28.80;90.00
9403;DHT22;4741;49.834;10.740;2022-07-15T14:45:40;29.00;87.10
9403;DHT22;4741;49.834;10.740;2022-07-15T14:48:07;28.00;88.90
9403;DHT22;4741;49.834;10.740;2022-07-15T14:50:34;28.60;83.30
9403;DHT22;4741;49.834;10.740;2022-07-15T14:53:01;29.60;95.30
9403;DHT22;4741;49.834;10.740;2022-07-15T14:58:27;29.30;79.20
9403;DHT22;4741;49.834;10.740;2022-07-15T15:00:57;30.00;94.90
9403;DHT22;4741;49.834;10.740;2022-07-15T15:03:25;30.50;94.90
9403;DHT22;4741;49.834;10.740;2022-07-15T15:06:03;29.60;80.20
9403;DHT22;4741;49.834;10.740;2022-07-15T15:08:30;30.40;75.20
9403;DHT22;4741;49.834;10.740;2022-07-15T15:10:57;30.70;74.80
9403;DHT22;4741;49.834;10.740;2022-07-15T15:13:30;30.30;74.30
9403;DHT22;4741;49.834;10.740;2022-07-15T15:16:00;29.50;76.00
9403;DHT22;4741;49.834;10.740;2022-07-15T15:18:29;28.60;76.70
9403;DHT22;4741;49.834;10.740;2022-07-15T15:20:56;28.70;98.60
9403;DHT22;4741;49.834;10.740;2022-07-15T15:23:23;29.20;99.70
9403;DHT22;4741;49.834;10.740;2022-07-15T15:26:03;27.40;77.40
9403;DHT22;4741;49.834;10.740;2022-07-15T15:28:49;26.90;99.90
9403;DHT22;4741;49.834;10.740;2022-07-15T15:31:16;26.70;96.30
9403;DHT22;4741;49.834;10.740;2022-07-15T15:33:43;27.00;99.90
9403;DHT22;4741;49.834;10.740;2022-07-15T15:36:13;26.60;92.60
9403;DHT22;4741;49.834;10.740;2022-07-15T15:53:50;26.40;99.90
9403;DHT22;4741;49.834;10.740;2022-07-15T15:56:17;25.70;82.80
9403;DHT22;4741;49.834;10.740;2022-07-15T16:01:11;25.10;98.10
9403;DHT22;4741;49.834;10.740;2022-07-15T16:06:06;24.90;96.20
9403;DHT22;4741;49.834;10.740;2022-07-15T16:08:33;25.00;99.90
9403;DHT22;4741;49.834;10.740;2022-07-15T16:11:00;26.20;92.10
9403;DHT22;4741;49.834;10.740;2022-07-15T16:13:29;26.60;85.70
9403;DHT22;4741;49.834;10.740;2022-07-15T16:15:56;26.70;78.50
9403;DHT22;4741;49.834;10.740;2022-07-15T16:24:07;26.60;78.50
9403;DHT22;4741;49.834;10.740;2022-07-15T16:26:59;26.30;96.60
9403;DHT22;4741;49.834;10.740;2022-07-15T16:29:40;25.20;81.40
9403;DHT22;4741;49.834;10.740;2022-07-15T16:32:06;25.30;99.90
9403;DHT22;4741;49.834;10.740;2022-07-15T16:34:38;26.10;99.90
9403;DHT22;4741;49.834;10.740;2022-07-15T16:39:35;24.60;81.40
9403;DHT22;4741;49.834;10.740;2022-07-15T16:42:09;25.30;86.00
9403;DHT22;4741;49.834;10.740;2022-07-15T16:47:03;25.60;88.20
9403;DHT22;4741;49.834;10.740;2022-07-15T16:49:29;25.50;89.80
9403;DHT22;4741;49.834;10.740;2022-07-15T16:51:56;25.60;89.40
9403;DHT22;4741;49.834;10.740;2022-07-15T16:54:25;26.60;77.80
9403;DHT22;4741;49.834;10.740;2022-07-15T16:56:53;27.00;76.30
9403;DHT22;4741;49.834;10.740;2022-07-15T16:59:20;27.20;77.30
9403;DHT22;4741;49.834;10.740;2022-07-15T17:01:47;26.60;78.60
9403;DHT22;4741;49.834;10.740;2022-07-15T17:06:41;25.00;99.90
9403;DHT22;4741;49.834;10.740;2022-07-15T17:09:09;24.50;88.10
9403;DHT22;4741;49.834;10.740;2022-07-15T17:14:03;24.00;98.00
9403;DHT22;4741;49.834;10.740;2022-07-15T17:16:30;24.10;99.90
9403;DHT22;4741;49.834;10.740;2022-07-15T17:21:24;23.60;86.30
9403;DHT22;4741;49.834;10.740;2022-07-15T17:41:02;23.10;98.20
9403;DHT22;4741;49.834;10.740;2022-07-15T17:43:30;23.10;99.90
9403;DHT22;4741;49.834;10.740;2022-07-15T17:48:24;22.90;87.90
9403;DHT22;4741;49.834;10.740;2022-07-15T17:51:10;23.30;91.10
9403;DHT22;4741;49.834;10.740;2022-07-15T18:10:47;22.50;91.30
9403;DHT22;4741;49.834;10.740;2022-07-15T18:15:41;22.20;99.90
9403;DHT22;4741;49.834;10.740;2022-07-15T18:18:08;22.00;95.90
9403;DHT22;4741;49.834;10.740;2022-07-15T18:23:02;21.80;98.80
9403;DHT22;4741;49.834;10.740;2022-07-15T18:25:29;22.40;99.90
9403;DHT22;4741;49.834;10.740;2022-07-15T18:27:56;21.40;99.90
9403;DHT22;4741;49.834;10.740;2022-07-15T19:19:37;19.20;99.90
9403;DHT22;4741;49.834;10.740;2022-07-15T19:22:04;19.10;99.90
9403;DHT22;4741;49.834;10.740;2022-07-15T19:29:28;18.80;99.90
9403;DHT22;4741;49.834;10.740;2022-07-15T19:51:34;18.10;99.90
9403;DHT22;4741;49.834;10.740;2022-07-15T19:56:28;18.00;99.90
9403;DHT22;4741;49.834;10.740;2022-07-15T19:58:56;19.10;99.90
9403;DHT22;4741;49.834;10.740;2022-07-15T20:13:57;17.40;99.90
9403;DHT22;4741;49.834;10.740;2022-07-15T20:18:52;17.20;99.90
9403;DHT22;4741;49.834;10.740;2022-07-15T20:21:19;17.70;99.90
9403;DHT22;4741;49.834;10.740;2022-07-15T20:23:46;18.70;99.90
9403;DHT22;4741;49.834;10.740;2022-07-15T20:26:12;17.30;99.90
9403;DHT22;4741;49.834;10.740;2022-07-15T21:00:34;16.60;99.90
9403;DHT22;4741;49.834;10.740;2022-07-15T21:03:01;16.50;99.90
9403;DHT22;4741;49.834;10.740;2022-07-15T21:05:28;16.30;99.90
9403;DHT22;4741;49.834;10.740;2022-07-15T21:07:55;15.90;99.90
9403;DHT22;4741;49.834;10.740;2022-07-15T21:10:22;16.60;99.90
9403;DHT22;4741;49.834;10.740;2022-07-15T21:12:48;16.10;99.90
9403;DHT22;4741;49.834;10.740;2022-07-15T21:15:15;15.60;99.90
9403;DHT22;4741;49.834;10.740;2022-07-15T21:17:42;16.40;99.90
9403;DHT22;4741;49.834;10.740;2022-07-15T21:20:09;16.80;99.90
9403;DHT22;4741;49.834;10.740;2022-07-15T21:22:36;15.40;99.90
9403;DHT22;4741;49.834;10.740;2022-07-15T21:25:03;15.00;99.90
9403;DHT22;4741;49.834;10.740;2022-07-15T21:27:49;14.90;99.90
9403;DHT22;4741;49.834;10.740;2022-07-15T21:30:17;14.90;99.90
9403;DHT22;4741;49.834;10.740;2022-07-15T21:32:44;15.00;99.90
9403;DHT22;4741;49.834;10.740;2022-07-15T21:35:11;15.00;99.90
9403;DHT22;4741;49.834;10.740;2022-07-15T21:37:37;14.90;99.90
9403;DHT22;4741;49.834;10.740;2022-07-15T21:40:04;14.50;99.90
9403;DHT22;4741;49.834;10.740;2022-07-15T21:42:31;14.50;99.90
9403;DHT22;4741;49.834;10.740;2022-07-15T21:44:59;15.00;99.90
9403;DHT22;4741;49.834;10.740;2022-07-15T21:47:25;14.50;99.90
9403;DHT22;4741;49.834;10.740;2022-07-15T21:49:52;14.60;99.90
9403;DHT22;4741;49.834;10.740;2022-07-15T21:52:19;14.60;99.90
9403;DHT22;4741;49.834;10.740;2022-07-15T21:54:45;14.60;99.90
9403;DHT22;4741;49.834;10.740;2022-07-15T21:57:12;14.60;99.90
9403;DHT22;4741;49.834;10.740;2022-07-15T21:59:39;15.10;99.90
9403;DHT22;4741;49.834;10.740;2022-07-15T22:02:06;14.70;99.90
9403;DHT22;4741;49.834;10.740;2022-07-15T22:04:33;14.20;99.90
9403;DHT22;4741;49.834;10.740;2022-07-15T22:07:01;14.50;99.90
9403;DHT22;4741;49.834;10.740;2022-07-15T22:11:57;14.10;99.90
9403;DHT22;4741;49.834;10.740;2022-07-15T22:14:25;14.80;99.90
9403;DHT22;4741;49.834;10.740;2022-07-15T22:16:52;14.00;99.90
9403;DHT22;4741;49.834;10.740;2022-07-15T22:19:18;14.50;99.90
9403;DHT22;4741;49.834;10.740;2022-07-15T22:21:45;13.50;99.90